Yahata_maru — JD3008 — position and weather

sailwx.info

Track history (hours):
 
Tides and Currents Weather Stations Pressure Air Temp Water Temp Dewpoint Dewpoint Depression Visibility Wind Speed Wind Dir Waves Ship Positions

Yahata_maru

Last reported at 2018-Feb-23 20:42 UTC. Time now 2018-Feb-24 07:50 UTC.
Position N 33°19' E 131°40'.

Length 74 m; draft 3.8 m.

Type: Cargo ship. MMSI: 431001106.

Date/timePositionNaut miles runAvg speedWind from/ knotsBaromVisibWave heightAir tempDewpointWater temp
2018-Feb-23 20:42N 33°19' E 131°40'2912.5
2018-Feb-23 18:21N 33°36' E 132°09'612.8
2018-Feb-23 17:52N 33°40' E 132°15'1212.2
2018-Feb-23 16:53N 33°46' E 132°27'512.1
2018-Feb-23 16:28N 33°50' E 132°32'812.0
2018-Feb-23 15:49N 33°55' E 132°38'411.5
2018-Feb-23 15:30N 33°57' E 132°42'7911.2
2018-Feb-23 08:26N 34°32' E 134°08'2011.8
2018-Feb-23 06:43N 34°42' E 134°29'312.2
2018-Feb-23 06:29N 34°44' E 134°32'610.8
2018-Feb-23 05:58N 34°46' E 134°38'1 0.5
2018-Feb-23 03:40N 34°47' E 134°38'0 0.0
2018-Feb-22 23:58N 34°47' E 134°38'0 0.0
2018-Feb-22 23:22N 34°47' E 134°38'0 0.0
2018-Feb-22 22:40N 34°47' E 134°38'0 0.0
2018-Feb-22 22:19N 34°47' E 134°38'2 4.1
2018-Feb-22 21:46N 34°45' E 134°38'0 0.0
2018-Feb-22 11:44N 34°45' E 134°38'2 5.5
2018-Feb-22 11:26N 34°43' E 134°37'10412.2
2018-Feb-22 02:58N 33°58' E 132°44'4713.1
2018-Feb-21 23:24N 33°29' E 132°00'512.8
2018-Feb-21 23:00N 33°26' E 131°55'611.9
2018-Feb-21 22:29N 33°23' E 131°49'611.9
2018-Feb-21 22:00N 33°20' E 131°43'5 0.7
2018-Feb-21 14:57N 33°16' E 131°40'2 5.1
2018-Feb-21 14:30N 33°18' E 131°40'812.8
2018-Feb-21 13:53N 33°25' E 131°45'511.7
2018-Feb-21 13:29N 33°29' E 131°47'611.4
2018-Feb-21 12:58N 33°35' E 131°46'612.0
2018-Feb-21 12:30N 33°40' E 131°42'611.5
2018-Feb-21 12:01N 33°43' E 131°36'612.0
2018-Feb-21 11:30N 33°44' E 131°30'612.4
2018-Feb-21 11:00N 33°47' E 131°23'612.6
2018-Feb-21 10:30N 33°49' E 131°16'612.7
2018-Feb-21 10:00N 33°52' E 131°09'713.1
2018-Feb-21 09:31N 33°56' E 131°03'510.6
2018-Feb-21 09:01N 33°56' E 130°56'5 9.4
2018-Feb-21 08:30N 33°57' E 130°51'612.6
2018-Feb-21 08:00N 33°58' E 130°43'612.4
2018-Feb-21 07:30N 33°57' E 130°36'612.1
2018-Feb-21 07:00N 33°55' E 130°29'612.3
2018-Feb-21 06:30N 33°50' E 130°24'611.9
2018-Feb-21 06:00N 33°47' E 130°18'611.9
2018-Feb-21 05:30N 33°43' E 130°13'11 0.3
2018-Feb-19 20:06N 33°43' E 129°59'113.0
2018-Feb-19 20:00N 33°43' E 130°01'612.7
2018-Feb-19 19:30N 33°47' E 130°07'612.5
2018-Feb-19 19:00N 33°50' E 130°13'612.1
2018-Feb-19 18:28N 33°54' E 130°20'611.8
2018-Feb-19 18:00N 33°56' E 130°26'612.1
2018-Feb-19 17:30N 33°57' E 130°33'612.3
2018-Feb-19 17:00N 33°58' E 130°40'612.3
2018-Feb-19 16:30N 33°58' E 130°48'612.1
2018-Feb-19 16:00N 33°55' E 130°54'612.5
2018-Feb-19 15:30N 33°59' E 130°60'611.8
2018-Feb-19 15:00N 33°56' E 131°06'612.6
2018-Feb-19 14:30N 33°52' E 131°12'612.7
2018-Feb-19 14:00N 33°51' E 131°20'611.5
2018-Feb-19 13:30N 33°47' E 131°26'612.7
2018-Feb-19 13:00N 33°45' E 131°32'713.2
2018-Feb-19 12:28N 33°41' E 131°40'612.9
2018-Feb-19 11:59N 33°37' E 131°45'613.4
2018-Feb-19 11:30N 33°31' E 131°47'813.1
2018-Feb-19 10:52N 33°23' E 131°44'412.1
2018-Feb-19 10:30N 33°19' E 131°41'3 0.1
2018-Feb-18 07:26N 33°16' E 131°40'0 0.6
2018-Feb-18 06:57N 33°16' E 131°40'0 0.0
2018-Feb-18 06:22N 33°16' E 131°40'0 0.0
2018-Feb-18 05:21N 33°16' E 131°40'0 0.0
2018-Feb-18 04:52N 33°16' E 131°40'0 0.0
2018-Feb-18 03:34N 33°16' E 131°40'0 0.0
2018-Feb-18 03:22N 33°16' E 131°40'0 0.0
2018-Feb-18 02:40N 33°16' E 131°40'0 0.1
2018-Feb-18 02:21N 33°16' E 131°40'0 0.1
2018-Feb-17 23:17N 33°17' E 131°40'2 6.3
2018-Feb-17 22:59N 33°18' E 131°41'812.0
2018-Feb-17 22:18N 33°23' E 131°49'411.6
2018-Feb-17 22:00N 33°26' E 131°52'3813.0
2018-Feb-17 19:06N 33°48' E 132°28'214.5
2018-Feb-17 18:58N 33°49' E 132°30'914.5
2018-Feb-17 18:21N 33°55' E 132°38'515.3
2018-Feb-17 18:00N 33°58' E 132°43'8612.2
2018-Feb-17 10:58N 34°25' E 134°22'613.1
2018-Feb-17 10:30N 34°27' E 134°29'612.4
2018-Feb-17 10:00N 34°30' E 134°36'612.5
2018-Feb-17 09:30N 34°32' E 134°43'612.2
2018-Feb-17 09:00N 34°34' E 134°50'612.0
2018-Feb-17 08:30N 34°37' E 134°56'5 9.7
2018-Feb-17 08:00N 34°37' E 135°02'511.0
2018-Feb-17 07:30N 34°37' E 135°09'612.0
2018-Feb-17 07:00N 34°38' E 135°16'510.3
2018-Feb-17 06:30N 34°40' E 135°22'3 5.2
2018-Feb-17 06:00N 34°42' E 135°24'0 0.0
2018-Feb-17 05:30N 34°42' E 135°24'0 0.0
2018-Feb-17 05:00N 34°42' E 135°24'0 0.0
2018-Feb-17 04:30N 34°42' E 135°24'0 0.0
2018-Feb-17 04:00N 34°42' E 135°24'0 0.0
2018-Feb-17 03:30N 34°42' E 135°24'0 0.0
2018-Feb-17 03:00N 34°42' E 135°24'0 0.0
2018-Feb-17 02:30N 34°42' E 135°24'0 0.0
2018-Feb-17 02:00N 34°42' E 135°24'0 0.0
2018-Feb-17 01:30N 34°42' E 135°24'0 0.0
2018-Feb-17 01:00N 34°42' E 135°24'0 0.0
2018-Feb-17 00:30N 34°42' E 135°24'0 0.0
2018-Feb-17 00:00N 34°42' E 135°24'0 0.0
2018-Feb-16 23:29N 34°42' E 135°24'0 0.0
2018-Feb-16 22:59N 34°42' E 135°24'0 0.0
2018-Feb-16 22:26N 34°42' E 135°24'0 0.0
2018-Feb-16 21:56N 34°42' E 135°24'0 0.0
2018-Feb-16 21:29N 34°42' E 135°24'0 0.0
2018-Feb-16 20:59N 34°42' E 135°24'0 0.0
2018-Feb-16 20:26N 34°42' E 135°24'0 0.0
2018-Feb-16 19:59N 34°42' E 135°24'0 0.0
2018-Feb-16 19:29N 34°42' E 135°24'0 0.0
2018-Feb-16 18:59N 34°42' E 135°24'0 0.0
2018-Feb-16 18:29N 34°42' E 135°24'0 0.0
2018-Feb-16 17:56N 34°42' E 135°24'0 0.0
2018-Feb-16 17:29N 34°42' E 135°24'0 0.0
2018-Feb-16 16:59N 34°42' E 135°24'0 0.0
2018-Feb-16 16:23N 34°42' E 135°24'0 0.0
2018-Feb-16 15:59N 34°42' E 135°24'0 0.0
2018-Feb-16 15:29N 34°42' E 135°24'0 0.0
2018-Feb-16 14:59N 34°42' E 135°24'0 0.0
2018-Feb-16 14:26N 34°42' E 135°24'0 0.0
2018-Feb-16 13:59N 34°42' E 135°24'0 0.0
2018-Feb-16 13:29N 34°42' E 135°24'0 0.0
2018-Feb-16 12:56N 34°42' E 135°24'0 0.0
2018-Feb-16 12:26N 34°42' E 135°24'0 0.0
2018-Feb-16 11:59N 34°42' E 135°24'0 0.0
2018-Feb-16 11:29N 34°42' E 135°24'0 0.0
2018-Feb-16 10:56N 34°42' E 135°24'0 0.0
2018-Feb-16 10:29N 34°42' E 135°24'0 0.0
2018-Feb-16 09:56N 34°42' E 135°24'0 0.0
2018-Feb-16 09:26N 34°42' E 135°24'0 0.0
2018-Feb-16 08:56N 34°42' E 135°24'0 0.0
2018-Feb-16 08:29N 34°42' E 135°24'0 0.0
2018-Feb-16 07:56N 34°42' E 135°24'0 0.0
2018-Feb-16 07:30N 34°42' E 135°24'1 2.5
2018-Feb-16 07:00N 34°41' E 135°23'4 9.0
2018-Feb-16 06:30N 34°36' E 135°24'3 5.7
2018-Feb-16 06:00N 34°34' E 135°27'0 0.0
2018-Feb-16 05:30N 34°34' E 135°27'0 0.0
2018-Feb-16 05:00N 34°34' E 135°27'0 0.0
2018-Feb-16 04:29N 34°34' E 135°27'0 0.0
2018-Feb-16 03:59N 34°34' E 135°27'0 0.0
2018-Feb-16 03:29N 34°34' E 135°27'0 0.0
2018-Feb-16 02:56N 34°34' E 135°27'0 0.0
2018-Feb-16 02:29N 34°34' E 135°27'0 0.0
2018-Feb-16 01:59N 34°34' E 135°27'0 0.0
2018-Feb-16 01:23N 34°34' E 135°27'0 0.0
2018-Feb-16 00:59N 34°34' E 135°27'0 0.0
2018-Feb-16 00:29N 34°34' E 135°27'0 0.0
2018-Feb-15 23:59N 34°34' E 135°27'0 0.0
2018-Feb-15 23:17N 34°34' E 135°27'0 0.0
2018-Feb-15 22:59N 34°34' E 135°27'0 0.0
2018-Feb-15 22:29N 34°34' E 135°27'0 0.0
2018-Feb-15 21:59N 34°34' E 135°27'0 0.0
2018-Feb-15 21:26N 34°34' E 135°27'0 0.0
2018-Feb-15 20:59N 34°34' E 135°27'0 0.0
2018-Feb-15 20:26N 34°34' E 135°27'0 0.0
2018-Feb-15 19:59N 34°34' E 135°27'0 0.0
2018-Feb-15 19:26N 34°34' E 135°27'0 0.0
2018-Feb-15 18:59N 34°34' E 135°27'0 0.0
2018-Feb-15 18:29N 34°34' E 135°27'0 0.0
2018-Feb-15 17:59N 34°34' E 135°27'0 0.0
2018-Feb-15 17:26N 34°34' E 135°27'0 0.0
2018-Feb-15 16:59N 34°34' E 135°27'0 0.0
2018-Feb-15 16:26N 34°34' E 135°27'0 0.0
2018-Feb-15 15:59N 34°34' E 135°27'0 0.0
2018-Feb-15 15:29N 34°34' E 135°27'0 0.0
2018-Feb-15 14:59N 34°34' E 135°27'0 0.0
2018-Feb-15 14:29N 34°34' E 135°27'0 0.0
2018-Feb-15 13:59N 34°34' E 135°27'0 0.0
2018-Feb-15 13:29N 34°34' E 135°27'0 0.0
2018-Feb-15 12:59N 34°34' E 135°27'0 0.0
2018-Feb-15 12:29N 34°34' E 135°27'0 0.0
2018-Feb-15 11:59N 34°34' E 135°27'0 0.0
2018-Feb-15 11:26N 34°34' E 135°27'0 0.0
2018-Feb-15 10:56N 34°34' E 135°27'0 0.0
2018-Feb-15 10:26N 34°34' E 135°27'0 0.0
2018-Feb-15 09:59N 34°34' E 135°27'0 0.0
2018-Feb-15 09:29N 34°34' E 135°27'0 0.0
2018-Feb-15 08:59N 34°34' E 135°27'0 0.0
2018-Feb-15 08:29N 34°34' E 135°27'0 0.0
2018-Feb-15 07:59N 34°34' E 135°27'0 0.0
2018-Feb-15 07:29N 34°34' E 135°27'0 0.0
2018-Feb-15 06:59N 34°34' E 135°27'0 0.0
2018-Feb-15 06:20N 34°34' E 135°27'0 0.0
2018-Feb-15 05:57N 34°34' E 135°27'0 0.0
2018-Feb-15 05:30N 34°34' E 135°27'3 6.6
2018-Feb-15 05:01N 34°36' E 135°24'611.7
2018-Feb-15 04:31N 34°33' E 135°18'612.4
2018-Feb-15 04:00N 34°28' E 135°13'612.1
2018-Feb-15 03:30N 34°24' E 135°08'611.7
2018-Feb-15 03:00N 34°19' E 135°04'510.7
2018-Feb-15 02:30N 34°13' E 135°03'612.0
2018-Feb-15 01:59N 34°07' E 135°03'612.5
2018-Feb-15 01:30N 34°01' E 135°03'163 6.3
2018-Feb-13 23:46N 34°34' E 138°16'311.1
2018-Feb-13 23:28N 34°34' E 138°20'610.7
2018-Feb-13 22:55N 34°34' E 138°27'610.1
2018-Feb-13 22:19N 34°35' E 138°34'4 9.3
2018-Feb-13 21:56N 34°34' E 138°39'  
Track history (hours):
 
Tides and Currents Weather Stations Pressure Air Temp Water Temp Dewpoint Dewpoint Depression Visibility Wind Speed Wind Dir Waves Ship Positions

Yahata_maru

Last reported at 2018-Feb-23 20:42 UTC. Time now 2018-Feb-24 07:50 UTC.
Position N 33°19' E 131°40'.

Length 74 m; draft 3.8 m.

Type: Cargo ship. MMSI: 431001106.

Date/timePositionNaut miles runAvg speedWind from/ knotsBaromVisibWave heightAir tempDewpointWater temp
2018-Feb-23 20:42N 33°19' E 131°40'2912.5
2018-Feb-23 18:21N 33°36' E 132°09'612.8
2018-Feb-23 17:52N 33°40' E 132°15'1212.2
2018-Feb-23 16:53N 33°46' E 132°27'512.1
2018-Feb-23 16:28N 33°50' E 132°32'812.0
2018-Feb-23 15:49N 33°55' E 132°38'411.5
2018-Feb-23 15:30N 33°57' E 132°42'7911.2
2018-Feb-23 08:26N 34°32' E 134°08'2011.8
2018-Feb-23 06:43N 34°42' E 134°29'312.2
2018-Feb-23 06:29N 34°44' E 134°32'610.8
2018-Feb-23 05:58N 34°46' E 134°38'1 0.5
2018-Feb-23 03:40N 34°47' E 134°38'0 0.0
2018-Feb-22 23:58N 34°47' E 134°38'0 0.0
2018-Feb-22 23:22N 34°47' E 134°38'0 0.0
2018-Feb-22 22:40N 34°47' E 134°38'0 0.0
2018-Feb-22 22:19N 34°47' E 134°38'2 4.1
2018-Feb-22 21:46N 34°45' E 134°38'0 0.0
2018-Feb-22 11:44N 34°45' E 134°38'2 5.5
2018-Feb-22 11:26N 34°43' E 134°37'10412.2
2018-Feb-22 02:58N 33°58' E 132°44'4713.1
2018-Feb-21 23:24N 33°29' E 132°00'512.8
2018-Feb-21 23:00N 33°26' E 131°55'611.9
2018-Feb-21 22:29N 33°23' E 131°49'611.9
2018-Feb-21 22:00N 33°20' E 131°43'5 0.7
2018-Feb-21 14:57N 33°16' E 131°40'2 5.1
2018-Feb-21 14:30N 33°18' E 131°40'812.8
2018-Feb-21 13:53N 33°25' E 131°45'511.7
2018-Feb-21 13:29N 33°29' E 131°47'611.4
2018-Feb-21 12:58N 33°35' E 131°46'612.0
2018-Feb-21 12:30N 33°40' E 131°42'611.5
2018-Feb-21 12:01N 33°43' E 131°36'612.0
2018-Feb-21 11:30N 33°44' E 131°30'612.4
2018-Feb-21 11:00N 33°47' E 131°23'612.6
2018-Feb-21 10:30N 33°49' E 131°16'612.7
2018-Feb-21 10:00N 33°52' E 131°09'713.1
2018-Feb-21 09:31N 33°56' E 131°03'510.6
2018-Feb-21 09:01N 33°56' E 130°56'5 9.4
2018-Feb-21 08:30N 33°57' E 130°51'612.6
2018-Feb-21 08:00N 33°58' E 130°43'612.4
2018-Feb-21 07:30N 33°57' E 130°36'612.1
2018-Feb-21 07:00N 33°55' E 130°29'612.3
2018-Feb-21 06:30N 33°50' E 130°24'611.9
2018-Feb-21 06:00N 33°47' E 130°18'611.9
2018-Feb-21 05:30N 33°43' E 130°13'11 0.3
2018-Feb-19 20:06N 33°43' E 129°59'113.0
2018-Feb-19 20:00N 33°43' E 130°01'612.7
2018-Feb-19 19:30N 33°47' E 130°07'612.5
2018-Feb-19 19:00N 33°50' E 130°13'612.1
2018-Feb-19 18:28N 33°54' E 130°20'611.8
2018-Feb-19 18:00N 33°56' E 130°26'612.1
2018-Feb-19 17:30N 33°57' E 130°33'612.3
2018-Feb-19 17:00N 33°58' E 130°40'612.3
2018-Feb-19 16:30N 33°58' E 130°48'612.1
2018-Feb-19 16:00N 33°55' E 130°54'612.5
2018-Feb-19 15:30N 33°59' E 130°60'611.8
2018-Feb-19 15:00N 33°56' E 131°06'612.6
2018-Feb-19 14:30N 33°52' E 131°12'612.7
2018-Feb-19 14:00N 33°51' E 131°20'611.5
2018-Feb-19 13:30N 33°47' E 131°26'612.7
2018-Feb-19 13:00N 33°45' E 131°32'713.2
2018-Feb-19 12:28N 33°41' E 131°40'612.9
2018-Feb-19 11:59N 33°37' E 131°45'613.4
2018-Feb-19 11:30N 33°31' E 131°47'813.1
2018-Feb-19 10:52N 33°23' E 131°44'412.1
2018-Feb-19 10:30N 33°19' E 131°41'3 0.1
2018-Feb-18 07:26N 33°16' E 131°40'0 0.6
2018-Feb-18 06:57N 33°16' E 131°40'0 0.0
2018-Feb-18 06:22N 33°16' E 131°40'0 0.0
2018-Feb-18 05:21N 33°16' E 131°40'0 0.0
2018-Feb-18 04:52N 33°16' E 131°40'0 0.0
2018-Feb-18 03:34N 33°16' E 131°40'0 0.0
2018-Feb-18 03:22N 33°16' E 131°40'0 0.0
2018-Feb-18 02:40N 33°16' E 131°40'0 0.1
2018-Feb-18 02:21N 33°16' E 131°40'0 0.1
2018-Feb-17 23:17N 33°17' E 131°40'2 6.3
2018-Feb-17 22:59N 33°18' E 131°41'812.0
2018-Feb-17 22:18N 33°23' E 131°49'411.6
2018-Feb-17 22:00N 33°26' E 131°52'3813.0
2018-Feb-17 19:06N 33°48' E 132°28'214.5
2018-Feb-17 18:58N 33°49' E 132°30'914.5
2018-Feb-17 18:21N 33°55' E 132°38'515.3
2018-Feb-17 18:00N 33°58' E 132°43'8612.2
2018-Feb-17 10:58N 34°25' E 134°22'613.1
2018-Feb-17 10:30N 34°27' E 134°29'612.4
2018-Feb-17 10:00N 34°30' E 134°36'612.5
2018-Feb-17 09:30N 34°32' E 134°43'612.2
2018-Feb-17 09:00N 34°34' E 134°50'612.0
2018-Feb-17 08:30N 34°37' E 134°56'5 9.7
2018-Feb-17 08:00N 34°37' E 135°02'511.0
2018-Feb-17 07:30N 34°37' E 135°09'612.0
2018-Feb-17 07:00N 34°38' E 135°16'510.3
2018-Feb-17 06:30N 34°40' E 135°22'3 5.2
2018-Feb-17 06:00N 34°42' E 135°24'0 0.0
2018-Feb-17 05:30N 34°42' E 135°24'0 0.0
2018-Feb-17 05:00N 34°42' E 135°24'0 0.0
2018-Feb-17 04:30N 34°42' E 135°24'0 0.0
2018-Feb-17 04:00N 34°42' E 135°24'0 0.0
2018-Feb-17 03:30N 34°42' E 135°24'0 0.0
2018-Feb-17 03:00N 34°42' E 135°24'0 0.0
2018-Feb-17 02:30N 34°42' E 135°24'0 0.0
2018-Feb-17 02:00N 34°42' E 135°24'0 0.0
2018-Feb-17 01:30N 34°42' E 135°24'0 0.0
2018-Feb-17 01:00N 34°42' E 135°24'0 0.0
2018-Feb-17 00:30N 34°42' E 135°24'0 0.0
2018-Feb-17 00:00N 34°42' E 135°24'0 0.0
2018-Feb-16 23:29N 34°42' E 135°24'0 0.0
2018-Feb-16 22:59N 34°42' E 135°24'0 0.0
2018-Feb-16 22:26N 34°42' E 135°24'0 0.0
2018-Feb-16 21:56N 34°42' E 135°24'0 0.0
2018-Feb-16 21:29N 34°42' E 135°24'0 0.0
2018-Feb-16 20:59N 34°42' E 135°24'0 0.0
2018-Feb-16 20:26N 34°42' E 135°24'0 0.0
2018-Feb-16 19:59N 34°42' E 135°24'0 0.0
2018-Feb-16 19:29N 34°42' E 135°24'0 0.0
2018-Feb-16 18:59N 34°42' E 135°24'0 0.0
2018-Feb-16 18:29N 34°42' E 135°24'0 0.0
2018-Feb-16 17:56N 34°42' E 135°24'0 0.0
2018-Feb-16 17:29N 34°42' E 135°24'0 0.0
2018-Feb-16 16:59N 34°42' E 135°24'0 0.0
2018-Feb-16 16:23N 34°42' E 135°24'0 0.0
2018-Feb-16 15:59N 34°42' E 135°24'0 0.0
2018-Feb-16 15:29N 34°42' E 135°24'0 0.0
2018-Feb-16 14:59N 34°42' E 135°24'0 0.0
2018-Feb-16 14:26N 34°42' E 135°24'0 0.0
2018-Feb-16 13:59N 34°42' E 135°24'0 0.0
2018-Feb-16 13:29N 34°42' E 135°24'0 0.0
2018-Feb-16 12:56N 34°42' E 135°24'0 0.0
2018-Feb-16 12:26N 34°42' E 135°24'0 0.0
2018-Feb-16 11:59N 34°42' E 135°24'0 0.0
2018-Feb-16 11:29N 34°42' E 135°24'0 0.0
2018-Feb-16 10:56N 34°42' E 135°24'0 0.0
2018-Feb-16 10:29N 34°42' E 135°24'0 0.0
2018-Feb-16 09:56N 34°42' E 135°24'0 0.0
2018-Feb-16 09:26N 34°42' E 135°24'0 0.0
2018-Feb-16 08:56N 34°42' E 135°24'0 0.0
2018-Feb-16 08:29N 34°42' E 135°24'0 0.0
2018-Feb-16 07:56N 34°42' E 135°24'0 0.0
2018-Feb-16 07:30N 34°42' E 135°24'1 2.5
2018-Feb-16 07:00N 34°41' E 135°23'4 9.0
2018-Feb-16 06:30N 34°36' E 135°24'3 5.7
2018-Feb-16 06:00N 34°34' E 135°27'0 0.0
2018-Feb-16 05:30N 34°34' E 135°27'0 0.0
2018-Feb-16 05:00N 34°34' E 135°27'0 0.0
2018-Feb-16 04:29N 34°34' E 135°27'0 0.0
2018-Feb-16 03:59N 34°34' E 135°27'0 0.0
2018-Feb-16 03:29N 34°34' E 135°27'0 0.0
2018-Feb-16 02:56N 34°34' E 135°27'0 0.0
2018-Feb-16 02:29N 34°34' E 135°27'0 0.0
2018-Feb-16 01:59N 34°34' E 135°27'0 0.0
2018-Feb-16 01:23N 34°34' E 135°27'0 0.0
2018-Feb-16 00:59N 34°34' E 135°27'0 0.0
2018-Feb-16 00:29N 34°34' E 135°27'0 0.0
2018-Feb-15 23:59N 34°34' E 135°27'0 0.0
2018-Feb-15 23:17N 34°34' E 135°27'0 0.0
2018-Feb-15 22:59N 34°34' E 135°27'0 0.0
2018-Feb-15 22:29N 34°34' E 135°27'0 0.0
2018-Feb-15 21:59N 34°34' E 135°27'0 0.0
2018-Feb-15 21:26N 34°34' E 135°27'0 0.0
2018-Feb-15 20:59N 34°34' E 135°27'0 0.0
2018-Feb-15 20:26N 34°34' E 135°27'0 0.0
2018-Feb-15 19:59N 34°34' E 135°27'0 0.0
2018-Feb-15 19:26N 34°34' E 135°27'0 0.0
2018-Feb-15 18:59N 34°34' E 135°27'0 0.0
2018-Feb-15 18:29N 34°34' E 135°27'0 0.0
2018-Feb-15 17:59N 34°34' E 135°27'0 0.0
2018-Feb-15 17:26N 34°34' E 135°27'0 0.0
2018-Feb-15 16:59N 34°34' E 135°27'0 0.0
2018-Feb-15 16:26N 34°34' E 135°27'0 0.0
2018-Feb-15 15:59N 34°34' E 135°27'0 0.0
2018-Feb-15 15:29N 34°34' E 135°27'0 0.0
2018-Feb-15 14:59N 34°34' E 135°27'0 0.0
2018-Feb-15 14:29N 34°34' E 135°27'0 0.0
2018-Feb-15 13:59N 34°34' E 135°27'0 0.0
2018-Feb-15 13:29N 34°34' E 135°27'0 0.0
2018-Feb-15 12:59N 34°34' E 135°27'0 0.0
2018-Feb-15 12:29N 34°34' E 135°27'0 0.0
2018-Feb-15 11:59N 34°34' E 135°27'0 0.0
2018-Feb-15 11:26N 34°34' E 135°27'0 0.0
2018-Feb-15 10:56N 34°34' E 135°27'0 0.0
2018-Feb-15 10:26N 34°34' E 135°27'0 0.0
2018-Feb-15 09:59N 34°34' E 135°27'0 0.0
2018-Feb-15 09:29N 34°34' E 135°27'0 0.0
2018-Feb-15 08:59N 34°34' E 135°27'0 0.0
2018-Feb-15 08:29N 34°34' E 135°27'0 0.0
2018-Feb-15 07:59N 34°34' E 135°27'0 0.0
2018-Feb-15 07:29N 34°34' E 135°27'0 0.0
2018-Feb-15 06:59N 34°34' E 135°27'0 0.0
2018-Feb-15 06:20N 34°34' E 135°27'0 0.0
2018-Feb-15 05:57N 34°34' E 135°27'0 0.0
2018-Feb-15 05:30N 34°34' E 135°27'3 6.6
2018-Feb-15 05:01N 34°36' E 135°24'611.7
2018-Feb-15 04:31N 34°33' E 135°18'612.4
2018-Feb-15 04:00N 34°28' E 135°13'612.1
2018-Feb-15 03:30N 34°24' E 135°08'611.7
2018-Feb-15 03:00N 34°19' E 135°04'510.7
2018-Feb-15 02:30N 34°13' E 135°03'612.0
2018-Feb-15 01:59N 34°07' E 135°03'612.5
2018-Feb-15 01:30N 34°01' E 135°03'163 6.3
2018-Feb-13 23:46N 34°34' E 138°16'311.1
2018-Feb-13 23:28N 34°34' E 138°20'610.7
2018-Feb-13 22:55N 34°34' E 138°27'610.1
2018-Feb-13 22:19N 34°35' E 138°34'4 9.3
2018-Feb-13 21:56N 34°34' E 138°39'  

Dump ship's entire track history